This is the latest recevied weather packets stored in our database for station/object EW7404. If no packets are shown the sender has not sent any weather packets the latest 10 day(s).
| Time | Temp. | Humidity | Pressure | Rain* | Wind** | Luminosity | Snow |
|---|---|---|---|---|---|---|---|
| 1778112015 | 5° C | 62% | 952.1 hPa | 6.1 mm | - | - | - |
| 1778109015 | 5.56° C | 55% | 952.2 hPa | 0 mm | - | - | - |
| 1778106615 | 5.56° C | 57% | 952.2 hPa | 0 mm | - | - | - |
| 1778105436 | 5.56° C | 55% | 952.4 hPa | 0 mm | - | - | - |
| 1778103016 | 5.56° C | 58% | 952.6 hPa | 0 mm | - | - | - |
| 1778100037 | 5.56° C | 61% | 952.6 hPa | 0 mm | - | - | - |
| 1778094315 | 5.56° C | 63% | 952.4 hPa | 0 mm | - | - | - |
| 1778091315 | 5.56° C | 64% | 951.9 hPa | 0 mm | - | - | - |
| 1778090716 | 5.56° C | 64% | 951.8 hPa | 0 mm | - | - | - |
| 1778090116 | 5.56° C | 63% | 951.9 hPa | 0 mm | - | - | - |
| 1778088315 | 6.67° C | 59% | 951.8 hPa | 0 mm | - | - | - |
| 1778086515 | 6.67° C | 58% | 951.8 hPa | 0 mm | - | - | - |
| 1778085916 | 6.67° C | 57% | 951.9 hPa | 0 mm | - | - | - |
| 1778083516 | 6.67° C | 56% | 952 hPa | 0 mm | - | - | - |
| 1778079915 | 7.22° C | 55% | 952.2 hPa | 0 mm | - | - | - |
| 1778078716 | 6.67° C | 55% | 952.1 hPa | 0 mm | - | - | - |
| 1778072116 | 7.22° C | 57% | 952.3 hPa | 0 mm | - | - | - |
| 1778070915 | 6.67° C | 61% | 952.5 hPa | 0 mm | - | - | - |
| 1778070316 | 6.67° C | 61% | 952.6 hPa | 0 mm | - | - | - |
| 1778066715 | 7.22° C | 56% | 952.7 hPa | 6.1 mm | - | - | - |
| 1778065516 | 7.22° C | 58% | 952.7 hPa | 0 mm | - | - | - |
| 1778061316 | 7.78° C | 54% | 952.7 hPa | 0 mm | - | - | - |
| 1778054136 | 5.56° C | 59% | 952.2 hPa | 0 mm | - | - | - |
| 1778052315 | 7.22° C | 49% | 952.1 hPa | 0 mm | - | - | - |
| 1778048715 | 6.11° C | 48% | 952.1 hPa | 0 mm | - | - | - |
* Rain latest hour (hover to see other rain measurements)
** Current wind speed in m/s (hover to see current wind gust speed)